sensor_id;sensor_type;location;lat;lon;timestamp;P1;durP1;ratioP1;P2;durP2;ratioP2
78443;SDS011;67739;52.986;8.894;2023-03-12T00:01:10;4.25;;;0.82;;
78443;SDS011;67739;52.986;8.894;2023-03-12T00:03:37;3.35;;;0.98;;
78443;SDS011;67739;52.986;8.894;2023-03-12T00:06:04;2.85;;;1.00;;
78443;SDS011;67739;52.986;8.894;2023-03-12T00:08:30;3.85;;;0.88;;
78443;SDS011;67739;52.986;8.894;2023-03-12T00:10:55;6.07;;;1.08;;
78443;SDS011;67739;52.986;8.894;2023-03-12T00:13:20;4.90;;;1.08;;
78443;SDS011;67739;52.986;8.894;2023-03-12T00:15:45;4.28;;;0.90;;
78443;SDS011;67739;52.986;8.894;2023-03-12T00:18:11;7.03;;;1.45;;
78443;SDS011;67739;52.986;8.894;2023-03-12T00:20:36;4.28;;;1.17;;
78443;SDS011;67739;52.986;8.894;2023-03-12T00:23:01;3.88;;;1.58;;
78443;SDS011;67739;52.986;8.894;2023-03-12T00:25:27;3.58;;;0.93;;
78443;SDS011;67739;52.986;8.894;2023-03-12T00:27:52;2.83;;;1.00;;
78443;SDS011;67739;52.986;8.894;2023-03-12T00:30:17;3.78;;;0.80;;
78443;SDS011;67739;52.986;8.894;2023-03-12T00:32:43;3.63;;;1.00;;
78443;SDS011;67739;52.986;8.894;2023-03-12T00:35:08;4.70;;;0.98;;
78443;SDS011;67739;52.986;8.894;2023-03-12T00:37:35;3.97;;;1.02;;
78443;SDS011;67739;52.986;8.894;2023-03-12T00:40:01;5.18;;;1.55;;
78443;SDS011;67739;52.986;8.894;2023-03-12T00:42:29;4.60;;;1.48;;
78443;SDS011;67739;52.986;8.894;2023-03-12T00:44:54;4.60;;;1.58;;
78443;SDS011;67739;52.986;8.894;2023-03-12T00:47:20;4.35;;;1.30;;
78443;SDS011;67739;52.986;8.894;2023-03-12T00:49:45;4.82;;;1.65;;
78443;SDS011;67739;52.986;8.894;2023-03-12T00:52:10;4.75;;;1.63;;
78443;SDS011;67739;52.986;8.894;2023-03-12T00:54:36;3.45;;;1.17;;
78443;SDS011;67739;52.986;8.894;2023-03-12T00:57:01;4.05;;;1.27;;
78443;SDS011;67739;52.986;8.894;2023-03-12T00:59:27;5.00;;;1.20;;
78443;SDS011;67739;52.986;8.894;2023-03-12T01:01:52;2.85;;;0.93;;
78443;SDS011;67739;52.986;8.894;2023-03-12T01:04:17;5.13;;;1.05;;
78443;SDS011;67739;52.986;8.894;2023-03-12T01:06:43;4.95;;;1.88;;
78443;SDS011;67739;52.986;8.894;2023-03-12T01:09:08;4.63;;;1.20;;
78443;SDS011;67739;52.986;8.894;2023-03-12T01:11:35;3.90;;;1.30;;
78443;SDS011;67739;52.986;8.894;2023-03-12T01:14:02;5.32;;;1.38;;
78443;SDS011;67739;52.986;8.894;2023-03-12T01:16:29;5.47;;;1.13;;
78443;SDS011;67739;52.986;8.894;2023-03-12T01:18:55;3.33;;;0.98;;
78443;SDS011;67739;52.986;8.894;2023-03-12T01:21:21;5.38;;;1.40;;
78443;SDS011;67739;52.986;8.894;2023-03-12T01:23:48;5.60;;;1.38;;
78443;SDS011;67739;52.986;8.894;2023-03-12T01:26:13;3.65;;;1.50;;
78443;SDS011;67739;52.986;8.894;2023-03-12T01:28:39;3.78;;;1.17;;
78443;SDS011;67739;52.986;8.894;2023-03-12T01:31:05;3.38;;;1.13;;
78443;SDS011;67739;52.986;8.894;2023-03-12T01:33:35;4.57;;;1.30;;
78443;SDS011;67739;52.986;8.894;2023-03-12T01:36:00;4.75;;;1.58;;
78443;SDS011;67739;52.986;8.894;2023-03-12T01:38:25;4.25;;;1.45;;
78443;SDS011;67739;52.986;8.894;2023-03-12T01:40:51;5.13;;;1.95;;
78443;SDS011;67739;52.986;8.894;2023-03-12T01:43:21;3.58;;;1.08;;
78443;SDS011;67739;52.986;8.894;2023-03-12T01:48:17;6.32;;;1.58;;
78443;SDS011;67739;52.986;8.894;2023-03-12T01:50:44;5.00;;;1.30;;
78443;SDS011;67739;52.986;8.894;2023-03-12T01:53:09;3.83;;;0.95;;
78443;SDS011;67739;52.986;8.894;2023-03-12T01:55:35;3.70;;;1.38;;
78443;SDS011;67739;52.986;8.894;2023-03-12T01:58:01;5.22;;;1.40;;
78443;SDS011;67739;52.986;8.894;2023-03-12T02:00:26;5.22;;;1.15;;
78443;SDS011;67739;52.986;8.894;2023-03-12T02:02:53;3.90;;;1.17;;
78443;SDS011;67739;52.986;8.894;2023-03-12T02:08:03;7.05;;;2.50;;
78443;SDS011;67739;52.986;8.894;2023-03-12T02:10:28;3.45;;;0.93;;
78443;SDS011;67739;52.986;8.894;2023-03-12T02:12:54;5.60;;;1.25;;
78443;SDS011;67739;52.986;8.894;2023-03-12T02:15:19;5.55;;;1.23;;
78443;SDS011;67739;52.986;8.894;2023-03-12T02:17:45;5.35;;;1.13;;
78443;SDS011;67739;52.986;8.894;2023-03-12T02:20:18;3.85;;;1.20;;
78443;SDS011;67739;52.986;8.894;2023-03-12T02:22:46;5.47;;;1.40;;
78443;SDS011;67739;52.986;8.894;2023-03-12T02:27:59;4.40;;;1.23;;
78443;SDS011;67739;52.986;8.894;2023-03-12T02:30:29;2.35;;;1.25;;
78443;SDS011;67739;52.986;8.894;2023-03-12T02:32:55;4.13;;;1.08;;
78443;SDS011;67739;52.986;8.894;2023-03-12T02:35:23;8.52;;;1.38;;
78443;SDS011;67739;52.986;8.894;2023-03-12T02:37:50;5.00;;;1.52;;
78443;SDS011;67739;52.986;8.894;2023-03-12T02:40:23;10.43;;;1.75;;
78443;SDS011;67739;52.986;8.894;2023-03-12T02:42:55;6.18;;;1.63;;
78443;SDS011;67739;52.986;8.894;2023-03-12T02:45:21;3.90;;;1.38;;
78443;SDS011;67739;52.986;8.894;2023-03-12T02:47:49;5.03;;;1.65;;
78443;SDS011;67739;52.986;8.894;2023-03-12T02:50:14;3.47;;;1.60;;
78443;SDS011;67739;52.986;8.894;2023-03-12T02:52:40;5.40;;;1.40;;
78443;SDS011;67739;52.986;8.894;2023-03-12T02:55:05;3.53;;;1.23;;
78443;SDS011;67739;52.986;8.894;2023-03-12T02:57:31;4.35;;;1.10;;
78443;SDS011;67739;52.986;8.894;2023-03-12T02:59:57;4.88;;;1.15;;
78443;SDS011;67739;52.986;8.894;2023-03-12T03:02:22;4.35;;;1.58;;
78443;SDS011;67739;52.986;8.894;2023-03-12T03:04:48;5.68;;;1.98;;
78443;SDS011;67739;52.986;8.894;2023-03-12T03:07:13;5.28;;;1.33;;
78443;SDS011;67739;52.986;8.894;2023-03-12T03:09:39;4.07;;;1.55;;
78443;SDS011;67739;52.986;8.894;2023-03-12T03:12:05;4.55;;;1.42;;
78443;SDS011;67739;52.986;8.894;2023-03-12T03:14:30;3.42;;;1.02;;
78443;SDS011;67739;52.986;8.894;2023-03-12T03:16:56;3.65;;;1.08;;
78443;SDS011;67739;52.986;8.894;2023-03-12T03:19:22;3.28;;;1.20;;
78443;SDS011;67739;52.986;8.894;2023-03-12T03:21:47;4.28;;;1.65;;
78443;SDS011;67739;52.986;8.894;2023-03-12T03:24:13;2.08;;;0.85;;
78443;SDS011;67739;52.986;8.894;2023-03-12T03:26:38;5.07;;;1.40;;
78443;SDS011;67739;52.986;8.894;2023-03-12T03:29:03;5.22;;;1.02;;
78443;SDS011;67739;52.986;8.894;2023-03-12T03:31:29;3.90;;;1.25;;
78443;SDS011;67739;52.986;8.894;2023-03-12T03:33:54;4.57;;;1.33;;
78443;SDS011;67739;52.986;8.894;2023-03-12T03:36:20;3.85;;;1.35;;
78443;SDS011;67739;52.986;8.894;2023-03-12T03:38:47;9.38;;;1.77;;
78443;SDS011;67739;52.986;8.894;2023-03-12T03:41:15;4.75;;;1.58;;
78443;SDS011;67739;52.986;8.894;2023-03-12T03:43:41;7.10;;;1.70;;
78443;SDS011;67739;52.986;8.894;2023-03-12T03:46:07;4.15;;;1.45;;
78443;SDS011;67739;52.986;8.894;2023-03-12T03:48:32;4.10;;;1.65;;
78443;SDS011;67739;52.986;8.894;2023-03-12T03:51:01;6.75;;;1.92;;
78443;SDS011;67739;52.986;8.894;2023-03-12T03:53:27;5.43;;;1.73;;
78443;SDS011;67739;52.986;8.894;2023-03-12T03:55:53;6.57;;;1.90;;
78443;SDS011;67739;52.986;8.894;2023-03-12T03:58:18;6.75;;;2.03;;
78443;SDS011;67739;52.986;8.894;2023-03-12T04:00:44;6.32;;;2.95;;
78443;SDS011;67739;52.986;8.894;2023-03-12T04:03:10;7.13;;;2.17;;
78443;SDS011;67739;52.986;8.894;2023-03-12T04:05:35;4.80;;;2.10;;
78443;SDS011;67739;52.986;8.894;2023-03-12T04:08:01;6.70;;;2.20;;
78443;SDS011;67739;52.986;8.894;2023-03-12T04:10:27;5.63;;;1.70;;
78443;SDS011;67739;52.986;8.894;2023-03-12T04:12:53;4.80;;;1.83;;
78443;SDS011;67739;52.986;8.894;2023-03-12T04:15:19;6.55;;;2.38;;
78443;SDS011;67739;52.986;8.894;2023-03-12T04:17:44;5.65;;;2.13;;
78443;SDS011;67739;52.986;8.894;2023-03-12T04:20:09;5.95;;;2.30;;
78443;SDS011;67739;52.986;8.894;2023-03-12T04:22:35;6.57;;;2.95;;
78443;SDS011;67739;52.986;8.894;2023-03-12T04:25:01;8.82;;;2.92;;
78443;SDS011;67739;52.986;8.894;2023-03-12T04:27:26;5.63;;;2.47;;
78443;SDS011;67739;52.986;8.894;2023-03-12T04:29:52;5.25;;;2.03;;
78443;SDS011;67739;52.986;8.894;2023-03-12T04:32:17;4.55;;;1.92;;
78443;SDS011;67739;52.986;8.894;2023-03-12T04:34:42;5.40;;;1.95;;
78443;SDS011;67739;52.986;8.894;2023-03-12T04:37:08;9.23;;;3.00;;
78443;SDS011;67739;52.986;8.894;2023-03-12T04:39:37;8.48;;;2.67;;
78443;SDS011;67739;52.986;8.894;2023-03-12T04:42:03;7.40;;;2.10;;
78443;SDS011;67739;52.986;8.894;2023-03-12T04:44:28;6.95;;;2.25;;
78443;SDS011;67739;52.986;8.894;2023-03-12T04:46:54;6.30;;;2.45;;
78443;SDS011;67739;52.986;8.894;2023-03-12T04:49:19;5.47;;;2.17;;
78443;SDS011;67739;52.986;8.894;2023-03-12T04:51:44;6.28;;;2.67;;
78443;SDS011;67739;52.986;8.894;2023-03-12T04:54:10;6.50;;;2.33;;
78443;SDS011;67739;52.986;8.894;2023-03-12T04:56:35;7.18;;;2.33;;
78443;SDS011;67739;52.986;8.894;2023-03-12T04:59:00;6.00;;;2.83;;
78443;SDS011;67739;52.986;8.894;2023-03-12T05:01:28;4.72;;;1.75;;
78443;SDS011;67739;52.986;8.894;2023-03-12T05:03:55;6.65;;;2.85;;
78443;SDS011;67739;52.986;8.894;2023-03-12T05:06:21;6.85;;;3.40;;
78443;SDS011;67739;52.986;8.894;2023-03-12T05:08:48;6.18;;;2.15;;
78443;SDS011;67739;52.986;8.894;2023-03-12T05:11:14;7.78;;;2.30;;
78443;SDS011;67739;52.986;8.894;2023-03-12T05:13:40;7.00;;;2.30;;
78443;SDS011;67739;52.986;8.894;2023-03-12T05:16:05;3.38;;;1.55;;
78443;SDS011;67739;52.986;8.894;2023-03-12T05:18:31;6.43;;;2.97;;
78443;SDS011;67739;52.986;8.894;2023-03-12T05:21:00;6.40;;;2.50;;
78443;SDS011;67739;52.986;8.894;2023-03-12T05:23:27;9.95;;;2.72;;
78443;SDS011;67739;52.986;8.894;2023-03-12T05:25:53;5.15;;;2.05;;
78443;SDS011;67739;52.986;8.894;2023-03-12T05:28:18;7.40;;;2.78;;
78443;SDS011;67739;52.986;8.894;2023-03-12T05:30:44;6.32;;;2.50;;
78443;SDS011;67739;52.986;8.894;2023-03-12T05:33:10;7.55;;;3.05;;
78443;SDS011;67739;52.986;8.894;2023-03-12T05:35:36;7.15;;;3.17;;
78443;SDS011;67739;52.986;8.894;2023-03-12T05:38:01;8.80;;;3.13;;
78443;SDS011;67739;52.986;8.894;2023-03-12T05:40:26;4.82;;;2.45;;
78443;SDS011;67739;52.986;8.894;2023-03-12T05:42:52;6.60;;;2.65;;
78443;SDS011;67739;52.986;8.894;2023-03-12T05:45:17;10.45;;;3.40;;
78443;SDS011;67739;52.986;8.894;2023-03-12T05:47:43;7.57;;;3.00;;
78443;SDS011;67739;52.986;8.894;2023-03-12T05:50:09;8.40;;;2.70;;
78443;SDS011;67739;52.986;8.894;2023-03-12T05:52:35;6.95;;;3.33;;
78443;SDS011;67739;52.986;8.894;2023-03-12T05:55:01;8.32;;;3.88;;
78443;SDS011;67739;52.986;8.894;2023-03-12T05:57:26;7.63;;;3.22;;
78443;SDS011;67739;52.986;8.894;2023-03-12T05:59:51;5.30;;;2.78;;
78443;SDS011;67739;52.986;8.894;2023-03-12T06:02:17;7.57;;;2.97;;
78443;SDS011;67739;52.986;8.894;2023-03-12T06:04:42;11.43;;;2.70;;
78443;SDS011;67739;52.986;8.894;2023-03-12T06:07:10;6.10;;;2.55;;
78443;SDS011;67739;52.986;8.894;2023-03-12T06:09:35;6.50;;;2.80;;
78443;SDS011;67739;52.986;8.894;2023-03-12T06:12:01;8.18;;;3.20;;
78443;SDS011;67739;52.986;8.894;2023-03-12T06:14:26;11.15;;;3.70;;
78443;SDS011;67739;52.986;8.894;2023-03-12T06:16:51;6.78;;;4.13;;
78443;SDS011;67739;52.986;8.894;2023-03-12T06:19:18;8.35;;;3.10;;
78443;SDS011;67739;52.986;8.894;2023-03-12T06:21:43;8.02;;;3.00;;
78443;SDS011;67739;52.986;8.894;2023-03-12T06:24:09;8.05;;;3.75;;
78443;SDS011;67739;52.986;8.894;2023-03-12T06:26:34;6.13;;;2.47;;
78443;SDS011;67739;52.986;8.894;2023-03-12T06:29:00;9.52;;;3.17;;
78443;SDS011;67739;52.986;8.894;2023-03-12T06:31:25;7.32;;;3.72;;
78443;SDS011;67739;52.986;8.894;2023-03-12T06:33:51;6.00;;;2.67;;
78443;SDS011;67739;52.986;8.894;2023-03-12T06:36:17;8.57;;;3.65;;
78443;SDS011;67739;52.986;8.894;2023-03-12T06:38:43;9.82;;;3.00;;
78443;SDS011;67739;52.986;8.894;2023-03-12T06:41:12;7.32;;;4.28;;
78443;SDS011;67739;52.986;8.894;2023-03-12T06:43:40;6.93;;;3.17;;
78443;SDS011;67739;52.986;8.894;2023-03-12T06:48:32;10.02;;;3.38;;
78443;SDS011;67739;52.986;8.894;2023-03-12T06:51:00;8.23;;;3.63;;
78443;SDS011;67739;52.986;8.894;2023-03-12T06:53:26;8.32;;;4.05;;
78443;SDS011;67739;52.986;8.894;2023-03-12T06:55:55;8.70;;;4.47;;
78443;SDS011;67739;52.986;8.894;2023-03-12T06:58:20;8.27;;;4.15;;
78443;SDS011;67739;52.986;8.894;2023-03-12T07:00:45;7.88;;;3.10;;
78443;SDS011;67739;52.986;8.894;2023-03-12T07:03:11;7.65;;;3.85;;
78443;SDS011;67739;52.986;8.894;2023-03-12T07:05:36;7.28;;;4.35;;
78443;SDS011;67739;52.986;8.894;2023-03-12T07:08:02;8.27;;;3.50;;
78443;SDS011;67739;52.986;8.894;2023-03-12T07:10:27;6.85;;;3.72;;
78443;SDS011;67739;52.986;8.894;2023-03-12T07:12:54;7.20;;;3.72;;
78443;SDS011;67739;52.986;8.894;2023-03-12T07:15:20;6.75;;;3.97;;
78443;SDS011;67739;52.986;8.894;2023-03-12T07:17:46;7.90;;;4.57;;
78443;SDS011;67739;52.986;8.894;2023-03-12T07:20:11;7.10;;;3.10;;
78443;SDS011;67739;52.986;8.894;2023-03-12T07:22:37;7.60;;;3.78;;
78443;SDS011;67739;52.986;8.894;2023-03-12T07:25:02;9.95;;;4.07;;
78443;SDS011;67739;52.986;8.894;2023-03-12T07:29:54;7.10;;;3.60;;
78443;SDS011;67739;52.986;8.894;2023-03-12T07:32:19;7.05;;;3.00;;
78443;SDS011;67739;52.986;8.894;2023-03-12T07:37:10;9.23;;;3.35;;
78443;SDS011;67739;52.986;8.894;2023-03-12T07:42:00;6.75;;;3.53;;
78443;SDS011;67739;52.986;8.894;2023-03-12T07:46:51;7.38;;;3.60;;
78443;SDS011;67739;52.986;8.894;2023-03-12T07:49:17;8.45;;;3.72;;
78443;SDS011;67739;52.986;8.894;2023-03-12T07:51:43;9.20;;;4.25;;
78443;SDS011;67739;52.986;8.894;2023-03-12T07:56:34;7.72;;;3.47;;
78443;SDS011;67739;52.986;8.894;2023-03-12T08:01:25;7.90;;;3.83;;
78443;SDS011;67739;52.986;8.894;2023-03-12T08:03:55;6.80;;;3.25;;
78443;SDS011;67739;52.986;8.894;2023-03-12T08:06:23;7.28;;;3.63;;
78443;SDS011;67739;52.986;8.894;2023-03-12T08:11:14;6.53;;;2.80;;
78443;SDS011;67739;52.986;8.894;2023-03-12T08:16:08;11.52;;;3.47;;
78443;SDS011;67739;52.986;8.894;2023-03-12T08:20:59;8.55;;;3.47;;
78443;SDS011;67739;52.986;8.894;2023-03-12T08:25:50;7.50;;;3.35;;
78443;SDS011;67739;52.986;8.894;2023-03-12T08:30:48;8.93;;;3.50;;
78443;SDS011;67739;52.986;8.894;2023-03-12T08:33:15;7.55;;;3.53;;
78443;SDS011;67739;52.986;8.894;2023-03-12T08:38:06;6.43;;;3.15;;
78443;SDS011;67739;52.986;8.894;2023-03-12T08:40:32;7.32;;;3.58;;
78443;SDS011;67739;52.986;8.894;2023-03-12T08:42:57;8.93;;;2.97;;
78443;SDS011;67739;52.986;8.894;2023-03-12T08:47:48;8.40;;;3.60;;
78443;SDS011;67739;52.986;8.894;2023-03-12T08:52:41;9.27;;;2.88;;
78443;SDS011;67739;52.986;8.894;2023-03-12T08:55:07;7.80;;;2.65;;
78443;SDS011;67739;52.986;8.894;2023-03-12T08:57:33;6.80;;;2.22;;
78443;SDS011;67739;52.986;8.894;2023-03-12T08:59:59;7.40;;;2.83;;
78443;SDS011;67739;52.986;8.894;2023-03-12T09:02:24;7.20;;;3.00;;
78443;SDS011;67739;52.986;8.894;2023-03-12T09:04:50;8.65;;;2.90;;
78443;SDS011;67739;52.986;8.894;2023-03-12T09:07:15;7.32;;;2.80;;
78443;SDS011;67739;52.986;8.894;2023-03-12T09:09:46;9.27;;;2.60;;
78443;SDS011;67739;52.986;8.894;2023-03-12T09:12:11;6.80;;;2.60;;
78443;SDS011;67739;52.986;8.894;2023-03-12T09:14:36;7.10;;;3.17;;
78443;SDS011;67739;52.986;8.894;2023-03-12T09:17:02;7.07;;;2.63;;
78443;SDS011;67739;52.986;8.894;2023-03-12T09:19:27;5.85;;;2.20;;
78443;SDS011;67739;52.986;8.894;2023-03-12T09:21:53;7.18;;;2.60;;
78443;SDS011;67739;52.986;8.894;2023-03-12T09:24:18;9.45;;;2.50;;
78443;SDS011;67739;52.986;8.894;2023-03-12T09:26:44;8.40;;;2.47;;
78443;SDS011;67739;52.986;8.894;2023-03-12T09:29:09;5.60;;;2.65;;
78443;SDS011;67739;52.986;8.894;2023-03-12T09:31:35;6.85;;;2.75;;
78443;SDS011;67739;52.986;8.894;2023-03-12T09:34:01;4.70;;;2.05;;
78443;SDS011;67739;52.986;8.894;2023-03-12T09:36:27;11.88;;;3.40;;
78443;SDS011;67739;52.986;8.894;2023-03-12T09:38:52;5.45;;;2.30;;
78443;SDS011;67739;52.986;8.894;2023-03-12T09:41:19;5.07;;;2.00;;
78443;SDS011;67739;52.986;8.894;2023-03-12T09:43:57;6.82;;;2.83;;
78443;SDS011;67739;52.986;8.894;2023-03-12T09:46:50;6.90;;;2.97;;
78443;SDS011;67739;52.986;8.894;2023-03-12T09:49:20;5.82;;;2.35;;
78443;SDS011;67739;52.986;8.894;2023-03-12T09:51:54;7.90;;;2.30;;
78443;SDS011;67739;52.986;8.894;2023-03-12T09:54:32;9.80;;;2.67;;
78443;SDS011;67739;52.986;8.894;2023-03-12T09:56:59;6.43;;;1.73;;
78443;SDS011;67739;52.986;8.894;2023-03-12T09:59:28;6.25;;;2.05;;
78443;SDS011;67739;52.986;8.894;2023-03-12T10:01:54;7.53;;;2.60;;
78443;SDS011;67739;52.986;8.894;2023-03-12T10:04:28;6.55;;;2.00;;
78443;SDS011;67739;52.986;8.894;2023-03-12T10:12:05;6.13;;;2.40;;
78443;SDS011;67739;52.986;8.894;2023-03-12T10:14:55;6.63;;;1.92;;
78443;SDS011;67739;52.986;8.894;2023-03-12T10:22:48;5.47;;;2.10;;
78443;SDS011;67739;52.986;8.894;2023-03-12T10:25:45;6.43;;;2.25;;
78443;SDS011;67739;52.986;8.894;2023-03-12T10:28:41;4.43;;;1.95;;
78443;SDS011;67739;52.986;8.894;2023-03-12T10:31:13;4.45;;;1.73;;
78443;SDS011;67739;52.986;8.894;2023-03-12T10:33:46;6.60;;;2.20;;
78443;SDS011;67739;52.986;8.894;2023-03-12T10:36:18;5.28;;;2.15;;
78443;SDS011;67739;52.986;8.894;2023-03-12T10:38:46;5.13;;;1.70;;
78443;SDS011;67739;52.986;8.894;2023-03-12T10:41:14;9.15;;;2.63;;
78443;SDS011;67739;52.986;8.894;2023-03-12T10:43:45;5.72;;;1.80;;
78443;SDS011;67739;52.986;8.894;2023-03-12T10:48:39;7.15;;;2.28;;
78443;SDS011;67739;52.986;8.894;2023-03-12T10:51:06;5.85;;;2.47;;
78443;SDS011;67739;52.986;8.894;2023-03-12T10:53:33;6.38;;;1.73;;
78443;SDS011;67739;52.986;8.894;2023-03-12T10:56:18;6.22;;;1.98;;
78443;SDS011;67739;52.986;8.894;2023-03-12T10:58:45;6.18;;;1.45;;
78443;SDS011;67739;52.986;8.894;2023-03-12T11:03:46;6.05;;;1.83;;
78443;SDS011;67739;52.986;8.894;2023-03-12T11:06:19;6.10;;;2.45;;
78443;SDS011;67739;52.986;8.894;2023-03-12T11:11:52;6.93;;;1.65;;
78443;SDS011;67739;52.986;8.894;2023-03-12T11:14:21;4.43;;;1.15;;
78443;SDS011;67739;52.986;8.894;2023-03-12T11:16:48;6.00;;;1.35;;
78443;SDS011;67739;52.986;8.894;2023-03-12T11:19:31;3.42;;;1.27;;
78443;SDS011;67739;52.986;8.894;2023-03-12T11:22:03;4.82;;;1.35;;
78443;SDS011;67739;52.986;8.894;2023-03-12T11:24:32;6.75;;;1.27;;
78443;SDS011;67739;52.986;8.894;2023-03-12T11:27:02;5.47;;;1.45;;
78443;SDS011;67739;52.986;8.894;2023-03-12T11:29:38;5.22;;;1.65;;
78443;SDS011;67739;52.986;8.894;2023-03-12T11:34:40;4.47;;;1.88;;
78443;SDS011;67739;52.986;8.894;2023-03-12T11:48:25;7.97;;;2.92;;
78443;SDS011;67739;52.986;8.894;2023-03-12T11:56:50;10.02;;;4.85;;
78443;SDS011;67739;52.986;8.894;2023-03-12T12:05:00;7.45;;;3.08;;
78443;SDS011;67739;52.986;8.894;2023-03-12T12:13:09;8.73;;;4.03;;
78443;SDS011;67739;52.986;8.894;2023-03-12T12:27:28;7.50;;;3.40;;
78443;SDS011;67739;52.986;8.894;2023-03-12T12:35:40;8.10;;;3.05;;
78443;SDS011;67739;52.986;8.894;2023-03-12T12:40:47;10.18;;;4.80;;
78443;SDS011;67739;52.986;8.894;2023-03-12T12:43:31;7.97;;;4.15;;
78443;SDS011;67739;52.986;8.894;2023-03-12T12:46:01;9.73;;;3.58;;
78443;SDS011;67739;52.986;8.894;2023-03-12T12:51:04;8.73;;;4.13;;
78443;SDS011;67739;52.986;8.894;2023-03-12T12:53:34;11.85;;;6.80;;
78443;SDS011;67739;52.986;8.894;2023-03-12T12:56:19;9.70;;;5.10;;
78443;SDS011;67739;52.986;8.894;2023-03-12T13:01:49;11.18;;;5.30;;
78443;SDS011;67739;52.986;8.894;2023-03-12T13:04:22;11.60;;;5.78;;
78443;SDS011;67739;52.986;8.894;2023-03-12T13:07:03;9.15;;;3.80;;
78443;SDS011;67739;52.986;8.894;2023-03-12T13:09:48;8.32;;;4.15;;
78443;SDS011;67739;52.986;8.894;2023-03-12T13:12:24;14.05;;;7.07;;
78443;SDS011;67739;52.986;8.894;2023-03-12T13:18:17;11.38;;;5.88;;
78443;SDS011;67739;52.986;8.894;2023-03-12T13:26:48;8.35;;;4.03;;
78443;SDS011;67739;52.986;8.894;2023-03-12T13:31:57;8.18;;;4.05;;
78443;SDS011;67739;52.986;8.894;2023-03-12T13:36:52;7.32;;;3.75;;
78443;SDS011;67739;52.986;8.894;2023-03-12T13:39:33;12.00;;;6.40;;
78443;SDS011;67739;52.986;8.894;2023-03-12T13:42:00;6.95;;;3.70;;
78443;SDS011;67739;52.986;8.894;2023-03-12T13:44:46;11.77;;;5.93;;
78443;SDS011;67739;52.986;8.894;2023-03-12T13:47:30;12.68;;;7.50;;
78443;SDS011;67739;52.986;8.894;2023-03-12T13:50:12;13.70;;;7.00;;
78443;SDS011;67739;52.986;8.894;2023-03-12T13:52:40;14.02;;;7.05;;
78443;SDS011;67739;52.986;8.894;2023-03-12T13:57:54;13.30;;;7.68;;
78443;SDS011;67739;52.986;8.894;2023-03-12T14:00:35;9.27;;;4.30;;
78443;SDS011;67739;52.986;8.894;2023-03-12T14:03:12;10.30;;;5.72;;
78443;SDS011;67739;52.986;8.894;2023-03-12T14:05:52;11.35;;;6.72;;
78443;SDS011;67739;52.986;8.894;2023-03-12T14:11:38;8.80;;;3.92;;
78443;SDS011;67739;52.986;8.894;2023-03-12T14:16:50;7.93;;;4.90;;
78443;SDS011;67739;52.986;8.894;2023-03-12T14:19:19;6.43;;;2.97;;
78443;SDS011;67739;52.986;8.894;2023-03-12T14:21:48;7.45;;;3.42;;
78443;SDS011;67739;52.986;8.894;2023-03-12T14:24:27;8.45;;;4.55;;
78443;SDS011;67739;52.986;8.894;2023-03-12T14:26:56;7.63;;;3.85;;
78443;SDS011;67739;52.986;8.894;2023-03-12T14:32:03;11.77;;;6.85;;
78443;SDS011;67739;52.986;8.894;2023-03-12T14:34:46;9.27;;;4.63;;
78443;SDS011;67739;52.986;8.894;2023-03-12T14:37:26;9.25;;;4.30;;
78443;SDS011;67739;52.986;8.894;2023-03-12T14:40:02;10.48;;;4.05;;
78443;SDS011;67739;52.986;8.894;2023-03-12T14:42:36;9.02;;;5.10;;
78443;SDS011;67739;52.986;8.894;2023-03-12T14:47:51;9.68;;;5.70;;
78443;SDS011;67739;52.986;8.894;2023-03-12T14:50:25;9.25;;;5.90;;
78443;SDS011;67739;52.986;8.894;2023-03-12T14:52:52;9.52;;;4.88;;
78443;SDS011;67739;52.986;8.894;2023-03-12T14:55:23;9.45;;;5.00;;
78443;SDS011;67739;52.986;8.894;2023-03-12T14:58:05;10.45;;;6.95;;
78443;SDS011;67739;52.986;8.894;2023-03-12T15:00:40;11.15;;;5.35;;
78443;SDS011;67739;52.986;8.894;2023-03-12T15:03:09;10.88;;;5.88;;
78443;SDS011;67739;52.986;8.894;2023-03-12T15:05:43;8.98;;;4.80;;
78443;SDS011;67739;52.986;8.894;2023-03-12T15:10:37;9.07;;;4.53;;
78443;SDS011;67739;52.986;8.894;2023-03-12T15:13:04;12.57;;;6.25;;
78443;SDS011;67739;52.986;8.894;2023-03-12T15:15:39;9.40;;;5.78;;
78443;SDS011;67739;52.986;8.894;2023-03-12T15:18:07;9.52;;;5.35;;
78443;SDS011;67739;52.986;8.894;2023-03-12T15:20:42;9.38;;;5.93;;
78443;SDS011;67739;52.986;8.894;2023-03-12T15:23:09;8.85;;;4.97;;
78443;SDS011;67739;52.986;8.894;2023-03-12T15:25:37;9.02;;;4.65;;
78443;SDS011;67739;52.986;8.894;2023-03-12T15:30:40;9.30;;;4.70;;
78443;SDS011;67739;52.986;8.894;2023-03-12T15:38:23;10.75;;;5.43;;
78443;SDS011;67739;52.986;8.894;2023-03-12T15:40:50;11.63;;;6.85;;
78443;SDS011;67739;52.986;8.894;2023-03-12T15:43:18;12.32;;;6.00;;
78443;SDS011;67739;52.986;8.894;2023-03-12T15:45:45;14.10;;;7.40;;
78443;SDS011;67739;52.986;8.894;2023-03-12T15:48:22;12.13;;;6.28;;
78443;SDS011;67739;52.986;8.894;2023-03-12T15:50:52;11.40;;;6.38;;
78443;SDS011;67739;52.986;8.894;2023-03-12T15:55:53;12.60;;;6.63;;
78443;SDS011;67739;52.986;8.894;2023-03-12T15:58:26;11.57;;;5.45;;
78443;SDS011;67739;52.986;8.894;2023-03-12T16:01:04;30.17;;;7.95;;
78443;SDS011;67739;52.986;8.894;2023-03-12T16:03:39;15.88;;;8.80;;
78443;SDS011;67739;52.986;8.894;2023-03-12T16:06:09;13.82;;;7.47;;
78443;SDS011;67739;52.986;8.894;2023-03-12T16:08:50;13.85;;;6.65;;
78443;SDS011;67739;52.986;8.894;2023-03-12T16:13:47;12.90;;;6.38;;
78443;SDS011;67739;52.986;8.894;2023-03-12T16:16:14;16.00;;;7.05;;
78443;SDS011;67739;52.986;8.894;2023-03-12T16:18:40;15.23;;;7.28;;
78443;SDS011;67739;52.986;8.894;2023-03-12T16:21:07;13.50;;;8.23;;
78443;SDS011;67739;52.986;8.894;2023-03-12T16:23:33;18.35;;;7.97;;
78443;SDS011;67739;52.986;8.894;2023-03-12T16:25:59;14.45;;;7.97;;
78443;SDS011;67739;52.986;8.894;2023-03-12T16:28:25;14.07;;;7.53;;
78443;SDS011;67739;52.986;8.894;2023-03-12T16:30:51;14.88;;;7.50;;
78443;SDS011;67739;52.986;8.894;2023-03-12T16:33:18;18.00;;;8.82;;
78443;SDS011;67739;52.986;8.894;2023-03-12T16:35:45;17.40;;;8.10;;
78443;SDS011;67739;52.986;8.894;2023-03-12T16:40:46;17.02;;;8.02;;
78443;SDS011;67739;52.986;8.894;2023-03-12T16:43:14;20.17;;;10.65;;
78443;SDS011;67739;52.986;8.894;2023-03-12T16:45:43;19.90;;;9.95;;
78443;SDS011;67739;52.986;8.894;2023-03-12T16:48:12;17.95;;;8.70;;
78443;SDS011;67739;52.986;8.894;2023-03-12T16:50:39;20.08;;;9.68;;
78443;SDS011;67739;52.986;8.894;2023-03-12T16:53:05;21.20;;;11.93;;
78443;SDS011;67739;52.986;8.894;2023-03-12T16:55:31;20.65;;;9.82;;
78443;SDS011;67739;52.986;8.894;2023-03-12T16:58:09;19.10;;;9.88;;
78443;SDS011;67739;52.986;8.894;2023-03-12T17:00:36;17.75;;;9.13;;
78443;SDS011;67739;52.986;8.894;2023-03-12T17:03:02;19.90;;;9.55;;
78443;SDS011;67739;52.986;8.894;2023-03-12T17:05:30;19.08;;;9.65;;
78443;SDS011;67739;52.986;8.894;2023-03-12T17:07:56;19.17;;;10.10;;
78443;SDS011;67739;52.986;8.894;2023-03-12T17:10:23;17.60;;;8.77;;
78443;SDS011;67739;52.986;8.894;2023-03-12T17:12:50;17.77;;;7.05;;
78443;SDS011;67739;52.986;8.894;2023-03-12T17:15:18;18.00;;;9.88;;
78443;SDS011;67739;52.986;8.894;2023-03-12T17:17:45;16.40;;;8.55;;
78443;SDS011;67739;52.986;8.894;2023-03-12T17:20:14;19.20;;;10.23;;
78443;SDS011;67739;52.986;8.894;2023-03-12T17:22:41;22.25;;;9.10;;
78443;SDS011;67739;52.986;8.894;2023-03-12T17:25:10;18.58;;;9.93;;
78443;SDS011;67739;52.986;8.894;2023-03-12T17:27:45;15.93;;;8.48;;
78443;SDS011;67739;52.986;8.894;2023-03-12T17:30:10;17.10;;;9.05;;
78443;SDS011;67739;52.986;8.894;2023-03-12T17:32:36;16.45;;;8.15;;
78443;SDS011;67739;52.986;8.894;2023-03-12T17:35:01;18.70;;;8.48;;
78443;SDS011;67739;52.986;8.894;2023-03-12T17:37:30;21.48;;;10.05;;